createdAt,value
2023-05-12T00:00:19.346Z,1008.84
2023-05-12T00:01:19.499Z,1008.81
2023-05-12T00:02:19.842Z,1008.80
2023-05-12T00:03:20.202Z,1008.83
2023-05-12T00:04:20.489Z,1008.81
2023-05-12T00:05:20.757Z,1008.77
2023-05-12T00:06:21.094Z,1008.83
2023-05-12T00:07:21.378Z,1008.79
2023-05-12T00:08:21.773Z,1008.82
2023-05-12T00:09:21.994Z,1008.78
2023-05-12T00:10:22.351Z,1008.76
2023-05-12T00:11:22.613Z,1008.79
2023-05-12T00:12:22.894Z,1008.79
2023-05-12T00:13:23.483Z,1008.80
2023-05-12T00:14:23.556Z,1008.83
2023-05-12T00:15:23.856Z,1008.80
2023-05-12T00:16:24.234Z,1008.79
2023-05-12T00:17:24.473Z,1008.81
2023-05-12T00:18:24.819Z,1008.82
2023-05-12T00:19:25.205Z,1008.82
2023-05-12T00:20:25.371Z,1008.79
2023-05-12T00:21:25.684Z,1008.77
2023-05-12T00:22:26.031Z,1008.77
2023-05-12T00:23:26.330Z,1008.77
2023-05-12T00:24:26.618Z,1008.78
2023-05-12T00:25:26.980Z,1008.78
2023-05-12T00:26:27.270Z,1008.73
2023-05-12T00:27:27.602Z,1008.78
2023-05-12T00:28:27.921Z,1008.79
2023-05-12T00:29:28.213Z,1008.88
2023-05-12T00:30:28.501Z,1008.84
2023-05-12T00:31:28.837Z,1008.79
2023-05-12T00:32:29.144Z,1008.75
2023-05-12T00:33:29.396Z,1008.78
2023-05-12T00:34:29.664Z,1008.76
2023-05-12T00:35:30.006Z,1008.72
2023-05-12T00:36:30.278Z,1008.73
2023-05-12T00:37:30.601Z,1008.71
2023-05-12T00:38:30.921Z,1008.73
2023-05-12T00:39:31.236Z,1008.74
2023-05-12T00:40:31.566Z,1008.73
2023-05-12T00:41:31.874Z,1008.76
2023-05-12T00:42:32.232Z,1008.72
2023-05-12T00:43:32.448Z,1008.71
2023-05-12T00:44:32.746Z,1008.72
2023-05-12T00:45:33.099Z,1008.69
2023-05-12T00:46:33.439Z,1008.71
2023-05-12T00:47:33.769Z,1008.70
2023-05-12T00:48:34.048Z,1008.68
2023-05-12T00:49:34.390Z,1008.69
2023-05-12T00:50:34.704Z,1008.65
2023-05-12T00:51:35.038Z,1008.69
2023-05-12T00:52:35.288Z,1008.68
2023-05-12T00:53:48.191Z,1008.64
2023-05-12T00:54:36.831Z,1008.60
2023-05-12T00:55:36.134Z,1008.62
2023-05-12T00:56:36.446Z,1008.56
2023-05-12T00:57:36.712Z,1008.57
2023-05-12T00:58:37.000Z,1008.54
2023-05-12T00:59:37.346Z,1008.48
2023-05-12T01:00:37.672Z,1008.46
2023-05-12T01:01:38.057Z,1008.49
2023-05-12T01:02:38.220Z,1008.44
2023-05-12T01:03:38.531Z,1008.45
2023-05-12T01:04:38.817Z,1008.41
2023-05-12T01:05:39.142Z,1008.37
2023-05-12T01:06:39.451Z,1008.35
2023-05-12T01:07:39.750Z,1008.41
2023-05-12T01:08:40.090Z,1008.41
2023-05-12T01:09:40.404Z,1008.44
2023-05-12T01:10:40.734Z,1008.44
2023-05-12T01:11:41.050Z,1008.46
2023-05-12T01:12:41.392Z,1008.44
2023-05-12T01:13:41.750Z,1008.41
2023-05-12T01:14:42.042Z,1008.38
2023-05-12T01:15:42.381Z,1008.40
2023-05-12T01:16:42.702Z,1008.40
2023-05-12T01:17:43.232Z,1008.36
2023-05-12T01:18:43.391Z,1008.35
2023-05-12T01:19:43.554Z,1008.37
2023-05-12T01:20:43.863Z,1008.39
2023-05-12T01:21:44.155Z,1008.29
2023-05-12T01:22:44.427Z,1008.28
2023-05-12T01:23:44.727Z,1008.31
2023-05-12T01:24:45.008Z,1008.32
2023-05-12T01:25:45.298Z,1008.31
2023-05-12T01:26:45.590Z,1008.29
2023-05-12T01:27:45.901Z,1008.30
2023-05-12T01:28:46.225Z,1008.29
2023-05-12T01:29:46.538Z,1008.27
2023-05-12T01:30:46.831Z,1008.31
2023-05-12T01:31:47.137Z,1008.27
2023-05-12T01:32:47.488Z,1008.26
2023-05-12T01:33:47.776Z,1008.23
2023-05-12T01:34:48.079Z,1008.23
2023-05-12T01:35:48.378Z,1008.22
2023-05-12T01:36:48.703Z,1008.19
2023-05-12T01:37:48.992Z,1008.14
2023-05-12T01:38:49.309Z,1008.17
2023-05-12T01:39:49.614Z,1008.20
2023-05-12T01:40:49.937Z,1008.17
2023-05-12T01:41:50.219Z,1008.20
2023-05-12T01:42:50.525Z,1008.18
2023-05-12T01:43:50.818Z,1008.17
2023-05-12T01:44:51.124Z,1008.18
2023-05-12T01:45:51.433Z,1008.16
2023-05-12T01:46:51.809Z,1008.16
2023-05-12T01:47:52.147Z,1008.14
2023-05-12T01:48:52.403Z,1008.14
2023-05-12T01:49:52.715Z,1008.16
2023-05-12T01:50:53.036Z,1008.16
2023-05-12T01:51:53.327Z,1008.13
2023-05-12T01:52:53.682Z,1008.13
2023-05-12T01:53:54.033Z,1008.15
2023-05-12T01:54:54.278Z,1008.10
2023-05-12T01:55:54.616Z,1008.12
2023-05-12T01:56:54.920Z,1008.15
2023-05-12T01:57:55.237Z,1008.11
2023-05-12T01:58:55.563Z,1008.09
2023-05-12T01:59:55.815Z,1008.09
2023-05-12T02:00:56.152Z,1008.11
2023-05-12T02:01:56.472Z,1008.09
2023-05-12T02:02:56.862Z,1008.11
2023-05-12T02:03:57.190Z,1008.10
2023-05-12T02:04:57.345Z,1008.11
2023-05-12T02:05:57.638Z,1008.14
2023-05-12T02:06:57.933Z,1008.14
2023-05-12T02:07:58.219Z,1008.08
2023-05-12T02:08:58.498Z,1008.08
2023-05-12T02:09:58.858Z,1008.12
2023-05-12T02:10:59.148Z,1008.10
2023-05-12T02:11:59.467Z,1008.05
2023-05-12T02:12:59.755Z,1008.07
2023-05-12T02:14:00.074Z,1008.03
2023-05-12T02:15:00.383Z,1008.04
2023-05-12T02:16:00.674Z,1008.06
2023-05-12T02:17:00.986Z,1008.04
2023-05-12T02:18:01.296Z,1008.05
2023-05-12T02:19:01.772Z,1008.07
2023-05-12T02:20:01.865Z,1008.05
2023-05-12T02:21:02.183Z,1008.05
2023-05-12T02:22:02.496Z,1008.07
2023-05-12T02:23:02.819Z,1008.11
2023-05-12T02:24:03.111Z,1008.09
2023-05-12T02:25:03.471Z,1008.12
2023-05-12T02:26:03.770Z,1008.07
2023-05-12T02:27:04.059Z,1008.09
2023-05-12T02:28:04.357Z,1008.06
2023-05-12T02:29:04.700Z,1008.11
2023-05-12T02:30:04.961Z,1008.11
2023-05-12T02:31:05.241Z,1008.12
2023-05-12T02:32:05.676Z,1008.06
2023-05-12T02:33:05.910Z,1008.09
2023-05-12T02:34:06.837Z,1008.07
2023-05-12T02:35:06.455Z,1008.06
2023-05-12T02:36:06.729Z,1008.09
2023-05-12T02:37:07.049Z,1008.07
2023-05-12T02:38:07.380Z,1008.08
2023-05-12T02:39:07.741Z,1008.04
2023-05-12T02:40:08.059Z,1008.04
2023-05-12T02:41:08.346Z,1008.07
2023-05-12T02:42:08.644Z,1008.06
2023-05-12T02:43:08.955Z,1008.00
2023-05-12T02:44:09.249Z,1008.02
2023-05-12T02:45:09.523Z,1008.00
2023-05-12T02:46:09.880Z,1008.01
2023-05-12T02:47:10.173Z,1008.03
2023-05-12T02:48:10.483Z,1008.06
2023-05-12T02:49:10.769Z,1008.01
2023-05-12T02:50:11.054Z,1008.00
2023-05-12T02:51:11.369Z,1007.98
2023-05-12T02:52:11.642Z,1007.99
2023-05-12T02:53:18.982Z,1007.95
2023-05-12T02:54:13.962Z,1007.97
2023-05-12T02:55:12.539Z,1007.96
2023-05-12T02:56:14.484Z,1007.96
2023-05-12T02:57:13.073Z,1008.00
2023-05-12T02:58:13.431Z,1007.94
2023-05-12T02:59:13.747Z,1007.97
2023-05-12T03:00:14.054Z,1007.95
2023-05-12T03:01:14.369Z,1007.97
2023-05-12T03:02:14.679Z,1007.96
2023-05-12T03:03:15.088Z,1007.96
2023-05-12T03:04:15.221Z,1007.97
2023-05-12T03:05:15.520Z,1007.97
2023-05-12T03:06:15.870Z,1007.95
2023-05-12T03:07:16.173Z,1007.95
2023-05-12T03:08:16.493Z,1007.93
2023-05-12T03:09:16.793Z,1007.89
2023-05-12T03:11:17.399Z,1007.95
2023-05-12T03:12:17.675Z,1007.95
2023-05-12T03:13:17.998Z,1007.90
2023-05-12T03:14:18.249Z,1007.95
2023-05-12T03:15:18.585Z,1007.96
2023-05-12T03:16:19.751Z,1007.96
2023-05-12T03:17:19.338Z,1007.96
2023-05-12T03:18:19.673Z,1007.96
2023-05-12T03:19:19.806Z,1007.96
2023-05-12T03:20:20.310Z,1007.95
2023-05-12T03:21:20.490Z,1007.98
2023-05-12T03:22:20.758Z,1007.96
2023-05-12T03:23:21.062Z,1007.93
2023-05-12T03:24:21.407Z,1007.93
2023-05-12T03:25:21.649Z,1007.91
2023-05-12T03:26:21.948Z,1007.90
2023-05-12T03:27:22.221Z,1007.87
2023-05-12T03:28:22.554Z,1007.90
2023-05-12T03:29:22.872Z,1007.87
2023-05-12T03:30:23.166Z,1007.89
2023-05-12T03:31:23.583Z,1007.87
2023-05-12T03:32:23.739Z,1007.87
2023-05-12T03:33:24.005Z,1007.87
2023-05-12T03:34:24.388Z,1007.92
2023-05-12T03:35:24.633Z,1007.90
2023-05-12T03:36:24.956Z,1007.90
2023-05-12T03:37:25.272Z,1007.89
2023-05-12T03:38:25.596Z,1007.86
2023-05-12T03:39:25.894Z,1007.93
2023-05-12T03:40:26.244Z,1007.85
2023-05-12T03:41:26.441Z,1007.85
2023-05-12T03:42:26.781Z,1007.85
2023-05-12T03:43:27.049Z,1007.86
2023-05-12T03:44:27.333Z,1007.81
2023-05-12T03:45:27.659Z,1007.84
2023-05-12T03:46:28.079Z,1007.84
2023-05-12T03:47:29.327Z,1007.83
2023-05-12T03:48:28.666Z,1007.83
2023-05-12T03:49:28.806Z,1007.85
2023-05-12T03:50:29.000Z,1007.79
2023-05-12T03:51:29.351Z,1007.87
2023-05-12T03:52:29.579Z,1007.84
2023-05-12T03:53:29.947Z,1007.80
2023-05-12T03:54:30.137Z,1007.78
2023-05-12T03:55:30.469Z,1007.78
2023-05-12T03:56:30.818Z,1007.85
2023-05-12T03:57:31.041Z,1007.80
2023-05-12T03:58:31.277Z,1007.81
2023-05-12T03:59:31.614Z,1007.81
2023-05-12T04:00:31.814Z,1007.83
2023-05-12T04:01:32.197Z,1007.85
2023-05-12T04:02:32.630Z,1007.82
2023-05-12T04:03:32.901Z,1007.87
2023-05-12T04:04:33.110Z,1007.89
2023-05-12T04:05:33.453Z,1007.84
2023-05-12T04:06:33.671Z,1007.88
2023-05-12T04:07:34.016Z,1007.82
2023-05-12T04:08:34.368Z,1007.89
2023-05-12T04:09:34.620Z,1007.85
2023-05-12T04:10:34.917Z,1007.89
2023-05-12T04:11:35.150Z,1007.91
2023-05-12T04:14:56.468Z,1007.89
2023-05-12T04:15:56.641Z,1007.93
2023-05-12T04:16:57.032Z,1007.98
2023-05-12T04:17:59.993Z,1007.93
2023-05-12T04:18:57.614Z,1007.97
2023-05-12T04:19:57.770Z,1007.99
2023-05-12T04:20:58.134Z,1007.98
2023-05-12T04:21:58.343Z,1007.98
2023-05-12T04:22:58.682Z,1007.98
2023-05-12T04:23:59.038Z,1008.01
2023-05-12T04:24:59.251Z,1007.99
2023-05-12T04:25:59.614Z,1008.03
2023-05-12T04:26:59.806Z,1008.07
2023-05-12T04:28:00.148Z,1008.04
2023-05-12T04:29:00.450Z,1008.07
2023-05-12T04:30:08.266Z,1008.08
2023-05-12T04:31:01.076Z,1008.05
2023-05-12T04:32:01.464Z,1008.07
2023-05-12T04:33:01.751Z,1008.09
2023-05-12T04:34:02.073Z,1008.13
2023-05-12T04:35:02.327Z,1008.12
2023-05-12T04:36:02.579Z,1008.08
2023-05-12T04:37:02.917Z,1008.12
2023-05-12T04:38:03.102Z,1008.12
2023-05-12T04:39:03.499Z,1008.12
2023-05-12T04:40:03.773Z,1008.17
2023-05-12T04:41:04.149Z,1008.18
2023-05-12T04:42:04.427Z,1008.15
2023-05-12T04:43:04.777Z,1008.21
2023-05-12T04:44:05.036Z,1008.19
2023-05-12T04:45:05.228Z,1008.23
2023-05-12T04:46:05.473Z,1008.21
2023-05-12T04:47:05.796Z,1008.21
2023-05-12T04:48:06.074Z,1008.21
2023-05-12T04:49:06.466Z,1008.23
2023-05-12T04:50:06.617Z,1008.25
2023-05-12T04:51:06.957Z,1008.30
2023-05-12T04:52:07.175Z,1008.25
2023-05-12T04:53:07.512Z,1008.28
2023-05-12T04:54:07.829Z,1008.28
2023-05-12T04:55:08.162Z,1008.34
2023-05-12T04:56:08.434Z,1008.34
2023-05-12T04:57:08.734Z,1008.38
2023-05-12T04:58:09.020Z,1008.42
2023-05-12T04:59:09.366Z,1008.43
2023-05-12T05:00:09.619Z,1008.44
2023-05-12T05:01:10.013Z,1008.41
2023-05-12T05:02:10.238Z,1008.45
2023-05-12T05:03:10.582Z,1008.47
2023-05-12T05:04:10.885Z,1008.48
2023-05-12T05:05:11.186Z,1008.51
2023-05-12T05:06:11.488Z,1008.51
2023-05-12T05:07:11.786Z,1008.53
2023-05-12T05:08:12.125Z,1008.45
2023-05-12T05:09:12.456Z,1008.57
2023-05-12T05:10:12.729Z,1008.58
2023-05-12T05:11:13.085Z,1008.62
2023-05-12T05:12:13.360Z,1008.61
2023-05-12T05:13:13.771Z,1008.64
2023-05-12T05:14:13.923Z,1008.63
2023-05-12T05:15:14.244Z,1008.64
2023-05-12T05:16:14.679Z,1008.67
2023-05-12T05:17:14.814Z,1008.64
2023-05-12T05:18:15.113Z,1008.64
2023-05-12T05:19:23.106Z,1008.68
2023-05-12T05:20:16.691Z,1008.67
2023-05-12T05:21:15.885Z,1008.68
2023-05-12T05:22:16.170Z,1008.65
2023-05-12T05:23:16.424Z,1008.69
2023-05-12T05:24:16.737Z,1008.67
2023-05-12T05:25:17.292Z,1008.65
2023-05-12T05:26:17.343Z,1008.69
2023-05-12T05:27:17.590Z,1008.66
2023-05-12T05:28:17.901Z,1008.69
2023-05-12T05:29:18.281Z,1008.75
2023-05-12T05:30:18.522Z,1008.74
2023-05-12T05:31:18.936Z,1008.82
2023-05-12T05:32:19.156Z,1008.81
2023-05-12T05:33:19.490Z,1008.81
2023-05-12T05:34:19.953Z,1008.80
2023-05-12T05:35:20.350Z,1008.81
2023-05-12T05:36:20.412Z,1008.86
2023-05-12T05:37:20.713Z,1008.87
2023-05-12T05:38:21.030Z,1008.90
2023-05-12T05:39:21.320Z,1008.84
2023-05-12T05:40:21.632Z,1008.92
2023-05-12T05:41:21.952Z,1008.86
2023-05-12T05:42:22.301Z,1008.88
2023-05-12T05:43:22.648Z,1008.90
2023-05-12T05:44:22.936Z,1008.93
2023-05-12T05:45:23.286Z,1008.96
2023-05-12T05:46:23.650Z,1008.98
2023-05-12T05:47:23.941Z,1009.02
2023-05-12T05:48:24.129Z,1008.96
2023-05-12T05:49:24.440Z,1008.99
2023-05-12T05:50:24.784Z,1009.02
2023-05-12T05:51:25.093Z,1009.02
2023-05-12T05:52:25.388Z,1009.08
2023-05-12T05:53:25.691Z,1009.06
2023-05-12T05:54:25.973Z,1009.06
2023-05-12T05:55:26.305Z,1009.12
2023-05-12T05:56:26.615Z,1009.09
2023-05-12T05:57:26.890Z,1009.10
2023-05-12T05:58:27.199Z,1009.13
2023-05-12T05:59:27.520Z,1009.13
2023-05-12T06:00:27.789Z,1009.14
2023-05-12T06:01:28.118Z,1009.20
2023-05-12T06:02:28.558Z,1009.17
2023-05-12T06:03:28.834Z,1009.20
2023-05-12T06:04:29.222Z,1009.20
2023-05-12T06:05:29.368Z,1009.24
2023-05-12T06:06:29.681Z,1009.27
2023-05-12T06:07:29.983Z,1009.30
2023-05-12T06:08:30.283Z,1009.27
2023-05-12T06:09:30.603Z,1009.30
2023-05-12T06:10:30.909Z,1009.33
2023-05-12T06:11:31.237Z,1009.33
2023-05-12T06:12:31.558Z,1009.31
2023-05-12T06:13:31.869Z,1009.34
2023-05-12T06:14:32.179Z,1009.34
2023-05-12T06:15:32.493Z,1009.38
2023-05-12T06:16:32.842Z,1009.39
2023-05-12T06:17:33.193Z,1009.41
2023-05-12T06:18:33.525Z,1009.46
2023-05-12T06:19:33.820Z,1009.44
2023-05-12T06:20:34.144Z,1009.49
2023-05-12T06:21:34.459Z,1009.52
2023-05-12T06:22:34.848Z,1009.49
2023-05-12T06:23:35.096Z,1009.48
2023-05-12T06:24:35.404Z,1009.51
2023-05-12T06:25:35.738Z,1009.46
2023-05-12T06:26:36.066Z,1009.47
2023-05-12T06:27:36.357Z,1009.51
2023-05-12T06:28:36.720Z,1009.55
2023-05-12T06:29:36.999Z,1009.56
2023-05-12T06:30:37.326Z,1009.55
2023-05-12T06:31:37.724Z,1009.54
2023-05-12T06:32:37.956Z,1009.54
2023-05-12T06:33:38.215Z,1009.59
2023-05-12T06:34:38.505Z,1009.59
2023-05-12T06:35:38.807Z,1009.57
2023-05-12T06:36:39.218Z,1009.58
2023-05-12T06:37:39.386Z,1009.60
2023-05-12T06:38:39.675Z,1009.60
2023-05-12T06:39:39.977Z,1009.62
2023-05-12T06:40:40.292Z,1009.71
2023-05-12T06:41:40.632Z,1009.67
2023-05-12T06:42:40.939Z,1009.57
2023-05-12T06:43:41.230Z,1009.66
2023-05-12T06:44:42.489Z,1009.60
2023-05-12T06:45:41.866Z,1009.63
2023-05-12T06:46:42.232Z,1009.67
2023-05-12T06:47:42.557Z,1009.64
2023-05-12T06:48:42.887Z,1009.63
2023-05-12T06:49:43.212Z,1009.69
2023-05-12T06:50:43.396Z,1009.68
2023-05-12T06:51:43.727Z,1009.68
2023-05-12T06:52:44.045Z,1009.68
2023-05-12T06:53:44.355Z,1009.70
2023-05-12T06:54:44.676Z,1009.74
2023-05-12T06:55:44.993Z,1009.76
2023-05-12T06:56:45.323Z,1009.82
2023-05-12T06:57:45.717Z,1009.73
2023-05-12T06:58:45.969Z,1009.74
2023-05-12T06:59:46.262Z,1009.81
2023-05-12T07:00:46.583Z,1009.79
2023-05-12T07:01:46.918Z,1009.78
2023-05-12T07:02:47.279Z,1009.79
2023-05-12T07:03:47.562Z,1009.82
2023-05-12T07:04:47.855Z,1009.84
2023-05-12T07:05:48.177Z,1009.78
2023-05-12T07:06:48.456Z,1009.81
2023-05-12T07:07:48.789Z,1009.81
2023-05-12T07:08:49.026Z,1009.79
2023-05-12T07:09:49.345Z,1009.79
2023-05-12T07:10:49.680Z,1009.79
2023-05-12T07:11:50.037Z,1009.77
2023-05-12T07:12:50.352Z,1009.77
2023-05-12T07:13:50.648Z,1009.75
2023-05-12T07:14:50.969Z,1009.78
2023-05-12T07:15:51.332Z,1009.75
2023-05-12T07:16:51.662Z,1009.80
2023-05-12T07:17:52.009Z,1009.79
2023-05-12T07:18:52.331Z,1009.79
2023-05-12T07:19:52.581Z,1009.79
2023-05-12T07:20:52.730Z,1009.82
2023-05-12T07:21:53.067Z,1009.86
2023-05-12T07:22:53.376Z,1009.82
2023-05-12T07:23:53.662Z,1009.85
2023-05-12T07:24:54.007Z,1009.85
2023-05-12T07:26:03.417Z,1009.85
2023-05-12T07:29:15.532Z,1009.93
2023-05-12T07:32:39.220Z,1009.89
2023-05-12T07:33:39.474Z,1009.97
2023-05-12T07:34:39.832Z,1009.93
2023-05-12T07:35:40.097Z,1009.91
2023-05-12T07:36:40.419Z,1009.96
2023-05-12T07:37:40.710Z,1009.97
2023-05-12T07:38:41.124Z,1009.91
2023-05-12T07:39:41.270Z,1009.92
2023-05-12T07:40:41.558Z,1010.00
2023-05-12T07:41:41.871Z,1009.94
2023-05-12T07:42:42.176Z,1009.98
2023-05-12T07:43:42.455Z,1010.02
2023-05-12T07:44:42.766Z,1010.04
2023-05-12T07:45:43.085Z,1009.98
2023-05-12T07:46:43.439Z,1009.97
2023-05-12T07:47:43.805Z,1009.98
2023-05-12T07:48:44.071Z,1009.99
2023-05-12T07:49:51.455Z,1009.98
2023-05-12T07:50:44.686Z,1010.00
2023-05-12T07:51:45.005Z,1010.01
2023-05-12T07:52:45.309Z,1010.13
2023-05-12T07:53:45.617Z,1009.98
2023-05-12T07:54:45.940Z,1009.96
2023-05-12T07:55:46.259Z,1009.98
2023-05-12T07:56:46.567Z,1010.04
2023-05-12T07:57:46.892Z,1010.04
2023-05-12T07:58:47.626Z,1010.06
2023-05-12T07:59:47.516Z,1010.07
2023-05-12T08:00:47.818Z,1010.05
2023-05-12T08:01:48.159Z,1010.04
2023-05-12T08:02:48.565Z,1010.01
2023-05-12T08:03:48.887Z,1010.00
2023-05-12T08:04:49.123Z,1009.99
2023-05-12T08:05:49.379Z,1010.10
2023-05-12T08:06:49.727Z,1010.07
2023-05-12T08:07:50.033Z,1010.04
2023-05-12T08:08:50.332Z,1010.06
2023-05-12T08:09:51.835Z,1010.02
2023-05-12T08:10:51.042Z,1010.04
2023-05-12T08:11:51.824Z,1010.04
2023-05-12T08:12:51.504Z,1010.05
2023-05-12T08:13:51.813Z,1010.09
2023-05-12T08:14:52.330Z,1010.12
2023-05-12T08:15:52.612Z,1010.07
2023-05-12T08:16:52.862Z,1010.13
2023-05-12T08:17:53.119Z,1010.09
2023-05-12T08:18:53.709Z,1010.13
2023-05-12T08:19:53.639Z,1010.12
2023-05-12T08:20:53.990Z,1010.15
2023-05-12T08:21:54.197Z,1010.07
2023-05-12T08:22:54.549Z,1010.10
2023-05-12T08:23:54.875Z,1010.14
2023-05-12T08:24:55.469Z,1010.12
2023-05-12T08:25:55.534Z,1010.08
2023-05-12T08:26:55.869Z,1010.08
2023-05-12T08:27:56.248Z,1010.12
2023-05-12T08:28:56.544Z,1010.15
2023-05-12T08:29:57.024Z,1010.20
2023-05-12T08:30:57.183Z,1010.18
2023-05-12T08:31:57.375Z,1010.17
2023-05-12T08:32:57.823Z,1010.18
2023-05-12T08:34:08.980Z,1010.09
2023-05-12T08:34:59.235Z,1010.25
2023-05-12T08:35:58.583Z,1010.16
2023-05-12T08:36:58.961Z,1010.11
2023-05-12T08:37:59.349Z,1010.16
2023-05-12T08:41:20.454Z,1010.11
2023-05-12T08:42:20.775Z,1010.22
2023-05-12T08:43:21.008Z,1010.22
2023-05-12T08:44:21.324Z,1010.25
2023-05-12T08:45:21.777Z,1010.20
2023-05-12T08:46:22.013Z,1010.24
2023-05-12T08:47:22.216Z,1010.18
2023-05-12T08:48:22.558Z,1010.22
2023-05-12T08:49:22.943Z,1010.15
2023-05-12T08:50:23.492Z,1010.19
2023-05-12T08:51:23.579Z,1010.24
2023-05-12T08:52:23.906Z,1010.22
2023-05-12T08:53:24.128Z,1010.27
2023-05-12T08:54:24.273Z,1010.24
2023-05-12T08:55:28.544Z,1010.25
2023-05-12T08:57:26.502Z,1010.28
2023-05-12T08:58:37.531Z,1010.29
2023-05-12T08:59:26.708Z,1010.26
2023-05-12T09:00:26.235Z,1010.30
2023-05-12T09:01:26.404Z,1010.29
2023-05-12T09:02:29.362Z,1010.28
2023-05-12T09:03:28.116Z,1010.31
2023-05-12T09:04:27.353Z,1010.29
2023-05-12T09:05:27.619Z,1010.32
2023-05-12T09:06:27.819Z,1010.37
2023-05-12T09:07:28.141Z,1010.31
2023-05-12T09:08:28.447Z,1010.30
2023-05-12T09:09:28.762Z,1010.35
2023-05-12T09:11:29.296Z,1010.35
2023-05-12T09:12:29.454Z,1010.40
2023-05-12T09:13:29.759Z,1010.39
2023-05-12T09:14:30.059Z,1010.32
2023-05-12T09:15:30.395Z,1010.33
2023-05-12T09:16:30.806Z,1010.30
2023-05-12T09:17:31.072Z,1010.31
2023-05-12T09:18:31.196Z,1010.23
2023-05-12T09:19:31.477Z,1010.29
2023-05-12T09:20:32.298Z,1010.31
2023-05-12T09:21:32.054Z,1010.35
2023-05-12T09:22:32.408Z,1010.37
2023-05-12T09:23:32.729Z,1010.32
2023-05-12T09:24:33.066Z,1010.31
2023-05-12T09:25:33.365Z,1010.37
2023-05-12T09:26:33.696Z,1010.31
2023-05-12T09:27:34.007Z,1010.36
2023-05-12T09:28:34.316Z,1010.40
2023-05-12T09:29:45.153Z,1010.43
2023-05-12T09:30:35.909Z,1010.40
2023-05-12T09:31:35.267Z,1010.38
2023-05-12T09:32:35.595Z,1010.42
2023-05-12T09:33:35.925Z,1010.44
2023-05-12T09:34:36.226Z,1010.40
2023-05-12T09:35:36.635Z,1010.46
2023-05-12T09:36:36.914Z,1010.41
2023-05-12T09:37:37.240Z,1010.43
2023-05-12T09:38:37.513Z,1010.43
2023-05-12T09:39:37.859Z,1010.50
2023-05-12T09:40:38.066Z,1010.44
2023-05-12T09:41:38.438Z,1010.50
2023-05-12T09:42:38.664Z,1010.48
2023-05-12T09:43:38.965Z,1010.46
2023-05-12T09:44:39.395Z,1010.45
2023-05-12T09:45:39.633Z,1010.52
2023-05-12T09:46:39.987Z,1010.41
2023-05-12T09:47:40.315Z,1010.41
2023-05-12T09:48:40.619Z,1010.33
2023-05-12T09:49:41.931Z,1010.42
2023-05-12T09:50:47.398Z,1010.41
2023-05-12T09:51:42.550Z,1010.38
2023-05-12T09:52:41.853Z,1010.40
2023-05-12T09:53:42.014Z,1010.40
2023-05-12T09:54:42.360Z,1010.39
2023-05-12T09:55:42.674Z,1010.39
2023-05-12T09:56:42.992Z,1010.40
2023-05-12T09:57:43.384Z,1010.35
2023-05-12T09:58:43.620Z,1010.40
2023-05-12T09:59:44.053Z,1010.42
2023-05-12T10:01:12.806Z,1010.36
2023-05-12T10:01:45.494Z,1010.37
2023-05-12T10:02:44.735Z,1010.38
2023-05-12T10:03:45.026Z,1010.46
2023-05-12T10:04:45.440Z,1010.39
2023-05-12T10:05:45.588Z,1010.42
2023-05-12T10:06:45.997Z,1010.41
2023-05-12T10:07:46.258Z,1010.41
2023-05-12T10:08:46.533Z,1010.40
2023-05-12T10:09:46.882Z,1010.43
2023-05-12T10:10:47.217Z,1010.41
2023-05-12T10:11:47.540Z,1010.38
2023-05-12T10:12:47.818Z,1010.43
2023-05-12T10:13:48.139Z,1010.42
2023-05-12T10:14:48.501Z,1010.43
2023-05-12T10:15:48.841Z,1010.43
2023-05-12T10:16:49.180Z,1010.40
2023-05-12T10:17:51.480Z,1010.47
2023-05-12T10:18:49.801Z,1010.51
2023-05-12T10:19:51.107Z,1010.42
2023-05-12T10:20:50.359Z,1010.49
2023-05-12T10:21:50.541Z,1010.48
2023-05-12T10:22:50.896Z,1010.45
2023-05-12T10:23:51.155Z,1010.41
2023-05-12T10:24:51.477Z,1010.39
2023-05-12T10:25:51.790Z,1010.40
2023-05-12T10:26:52.099Z,1010.34
2023-05-12T10:27:52.489Z,1010.35
2023-05-12T10:28:52.725Z,1010.40
2023-05-12T10:29:53.696Z,1010.39
2023-05-12T10:30:53.310Z,1010.33
2023-05-12T10:31:53.692Z,1010.33
2023-05-12T10:32:54.058Z,1010.32
2023-05-12T10:33:54.343Z,1010.33
2023-05-12T10:34:54.975Z,1010.37
2023-05-12T10:35:54.919Z,1010.36
2023-05-12T10:36:55.305Z,1010.38
2023-05-12T10:37:56.468Z,1010.38
2023-05-12T10:38:55.929Z,1010.36
2023-05-12T10:39:56.258Z,1010.39
2023-05-12T10:40:56.586Z,1010.34
2023-05-12T10:41:56.938Z,1010.39
2023-05-12T10:42:57.285Z,1010.40
2023-05-12T10:43:57.509Z,1010.32
2023-05-12T10:44:57.808Z,1010.35
2023-05-12T10:45:58.141Z,1010.41
2023-05-12T10:46:58.435Z,1010.37
2023-05-12T10:47:58.734Z,1010.35
2023-05-12T10:48:58.994Z,1010.38
2023-05-12T10:49:59.361Z,1010.39
2023-05-12T10:50:59.638Z,1010.38
2023-05-12T10:51:59.938Z,1010.42
2023-05-12T10:53:00.292Z,1010.32
2023-05-12T10:54:00.573Z,1010.32
2023-05-12T10:55:00.963Z,1010.33
2023-05-12T10:56:01.313Z,1010.33
2023-05-12T10:57:01.561Z,1010.40
2023-05-12T10:58:01.935Z,1010.35
2023-05-12T10:59:02.093Z,1010.31
2023-05-12T11:00:03.598Z,1010.31
2023-05-12T11:01:02.824Z,1010.27
2023-05-12T11:02:05.116Z,1010.29
2023-05-12T11:03:09.872Z,1010.37
2023-05-12T11:04:04.452Z,1010.32
2023-05-12T11:05:04.380Z,1010.32
2023-05-12T11:06:04.840Z,1010.35
2023-05-12T11:07:04.576Z,1010.36
2023-05-12T11:08:05.090Z,1010.33
2023-05-12T11:09:05.098Z,1010.35
2023-05-12T11:10:05.920Z,1010.34
2023-05-12T11:11:06.354Z,1010.33
2023-05-12T11:12:06.766Z,1010.32
2023-05-12T11:13:05.734Z,1010.36
2023-05-12T11:14:06.055Z,1010.39
2023-05-12T11:15:06.536Z,1010.51
2023-05-12T11:16:06.749Z,1010.39
2023-05-12T11:17:06.975Z,1010.43
2023-05-12T11:18:07.277Z,1010.43
2023-05-12T11:19:07.710Z,1010.43
2023-05-12T11:20:07.886Z,1010.42
2023-05-12T11:21:08.172Z,1010.40
2023-05-12T11:22:08.515Z,1010.42
2023-05-12T11:23:08.824Z,1010.37
2023-05-12T11:24:11.870Z,1010.41
2023-05-12T11:25:09.404Z,1010.39
2023-05-12T11:26:09.709Z,1010.41
2023-05-12T11:27:10.049Z,1010.42
2023-05-12T11:28:10.312Z,1010.42
2023-05-12T11:29:10.660Z,1010.50
2023-05-12T11:30:10.974Z,1010.49
2023-05-12T11:31:11.261Z,1010.45
2023-05-12T11:32:11.674Z,1010.43
2023-05-12T11:33:11.981Z,1010.40
2023-05-12T11:34:13.662Z,1010.45
2023-05-12T11:35:12.557Z,1010.42
2023-05-12T11:36:12.883Z,1010.46
2023-05-12T11:37:13.185Z,1010.41
2023-05-12T11:38:13.533Z,1010.45
2023-05-12T11:39:13.730Z,1010.45
2023-05-12T11:40:14.065Z,1010.41
2023-05-12T11:41:14.340Z,1010.45
2023-05-12T11:42:16.792Z,1010.44
2023-05-12T11:43:14.948Z,1010.46
2023-05-12T11:44:15.216Z,1010.46
2023-05-12T11:45:15.542Z,1010.43
2023-05-12T11:48:36.770Z,1010.48
2023-05-12T11:49:37.072Z,1010.49
2023-05-12T11:50:37.591Z,1010.47
2023-05-12T11:51:37.710Z,1010.44
2023-05-12T11:52:38.007Z,1010.42
2023-05-12T11:53:38.330Z,1010.45
2023-05-12T11:54:38.636Z,1010.44
2023-05-12T11:55:38.984Z,1010.40
2023-05-12T11:56:39.309Z,1010.38
2023-05-12T11:57:39.636Z,1010.39
2023-05-12T11:58:39.949Z,1010.44
2023-05-12T11:59:40.278Z,1010.44
2023-05-12T12:00:40.656Z,1010.46
2023-05-12T12:01:40.903Z,1010.45
2023-05-12T12:02:41.328Z,1010.47
2023-05-12T12:03:41.505Z,1010.47
2023-05-12T12:04:43.046Z,1010.47
2023-05-12T12:05:41.944Z,1010.45
2023-05-12T12:06:42.356Z,1010.53
2023-05-12T12:07:42.547Z,1010.47
2023-05-12T12:08:42.895Z,1010.43
2023-05-12T12:09:43.282Z,1010.46
2023-05-12T12:10:43.427Z,1010.47
2023-05-12T12:11:43.830Z,1010.46
2023-05-12T12:12:44.448Z,1010.46
2023-05-12T12:13:44.316Z,1010.47
2023-05-12T12:14:44.603Z,1010.48
2023-05-12T12:15:44.931Z,1010.48
2023-05-12T12:16:45.211Z,1010.48
2023-05-12T12:17:45.631Z,1010.54
2023-05-12T12:18:45.892Z,1010.59
2023-05-12T12:19:46.199Z,1010.57
2023-05-12T12:20:46.705Z,1010.55
2023-05-12T12:21:46.853Z,1010.56
2023-05-12T12:22:47.114Z,1010.59
2023-05-12T12:23:51.477Z,1010.63